sensor_id;sensor_type;location;lat;lon;timestamp;temperature;humidity
16160;DHT22;8185;57.818;15.224;2023-08-01T00:00:12;13.20;99.90
16160;DHT22;8185;57.818;15.224;2023-08-01T00:02:40;13.20;99.90
16160;DHT22;8185;57.818;15.224;2023-08-01T00:05:09;13.20;99.90
16160;DHT22;8185;57.818;15.224;2023-08-01T00:07:38;13.10;99.90
16160;DHT22;8185;57.818;15.224;2023-08-01T00:10:05;13.10;99.90
16160;DHT22;8185;57.818;15.224;2023-08-01T00:12:33;12.90;99.90
16160;DHT22;8185;57.818;15.224;2023-08-01T00:15:00;12.80;99.90
16160;DHT22;8185;57.818;15.224;2023-08-01T00:17:27;12.70;99.90
16160;DHT22;8185;57.818;15.224;2023-08-01T00:19:55;12.60;99.90
16160;DHT22;8185;57.818;15.224;2023-08-01T00:22:22;12.60;99.90
16160;DHT22;8185;57.818;15.224;2023-08-01T00:24:50;12.60;99.90
16160;DHT22;8185;57.818;15.224;2023-08-01T00:27:18;12.60;99.90
16160;DHT22;8185;57.818;15.224;2023-08-01T00:29:45;12.60;99.90
16160;DHT22;8185;57.818;15.224;2023-08-01T00:32:12;12.60;99.90
16160;DHT22;8185;57.818;15.224;2023-08-01T00:34:39;12.60;99.90
16160;DHT22;8185;57.818;15.224;2023-08-01T00:37:06;12.70;99.90
16160;DHT22;8185;57.818;15.224;2023-08-01T00:39:34;13.10;99.90
16160;DHT22;8185;57.818;15.224;2023-08-01T00:42:02;12.70;99.90
16160;DHT22;8185;57.818;15.224;2023-08-01T00:44:30;12.70;99.90
16160;DHT22;8185;57.818;15.224;2023-08-01T00:46:57;12.80;99.90
16160;DHT22;8185;57.818;15.224;2023-08-01T00:49:24;12.80;99.90
16160;DHT22;8185;57.818;15.224;2023-08-01T00:51:52;12.90;99.90
16160;DHT22;8185;57.818;15.224;2023-08-01T00:54:19;12.90;99.90
16160;DHT22;8185;57.818;15.224;2023-08-01T00:56:47;13.00;99.90
16160;DHT22;8185;57.818;15.224;2023-08-01T00:59:15;13.00;99.90
16160;DHT22;8185;57.818;15.224;2023-08-01T01:01:43;13.00;99.90
16160;DHT22;8185;57.818;15.224;2023-08-01T01:04:10;13.00;99.90
16160;DHT22;8185;57.818;15.224;2023-08-01T01:06:43;13.00;99.90
16160;DHT22;8185;57.818;15.224;2023-08-01T01:09:15;13.00;99.90
16160;DHT22;8185;57.818;15.224;2023-08-01T01:11:43;13.00;99.90
16160;DHT22;8185;57.818;15.224;2023-08-01T01:14:10;12.90;99.90
16160;DHT22;8185;57.818;15.224;2023-08-01T01:16:39;12.90;99.90
16160;DHT22;8185;57.818;15.224;2023-08-01T01:19:07;12.90;99.90
16160;DHT22;8185;57.818;15.224;2023-08-01T01:21:37;13.00;99.90
16160;DHT22;8185;57.818;15.224;2023-08-01T01:24:07;13.00;99.90
16160;DHT22;8185;57.818;15.224;2023-08-01T01:26:36;13.00;99.90
16160;DHT22;8185;57.818;15.224;2023-08-01T01:29:05;13.00;99.90
16160;DHT22;8185;57.818;15.224;2023-08-01T01:31:32;13.00;99.90
16160;DHT22;8185;57.818;15.224;2023-08-01T01:34:00;12.90;99.90
16160;DHT22;8185;57.818;15.224;2023-08-01T01:36:27;13.00;99.90
16160;DHT22;8185;57.818;15.224;2023-08-01T01:38:56;12.90;99.90
16160;DHT22;8185;57.818;15.224;2023-08-01T01:41:23;13.00;99.90
16160;DHT22;8185;57.818;15.224;2023-08-01T01:43:51;13.00;99.90
16160;DHT22;8185;57.818;15.224;2023-08-01T01:46:18;13.00;99.90
16160;DHT22;8185;57.818;15.224;2023-08-01T01:48:45;12.90;99.90
16160;DHT22;8185;57.818;15.224;2023-08-01T01:51:13;12.90;99.90
16160;DHT22;8185;57.818;15.224;2023-08-01T01:53:40;12.90;99.90
16160;DHT22;8185;57.818;15.224;2023-08-01T01:56:09;12.90;99.90
16160;DHT22;8185;57.818;15.224;2023-08-01T01:58:36;12.90;99.90
16160;DHT22;8185;57.818;15.224;2023-08-01T02:01:03;12.90;99.90
16160;DHT22;8185;57.818;15.224;2023-08-01T02:03:30;12.80;99.90
16160;DHT22;8185;57.818;15.224;2023-08-01T02:05:58;12.80;99.90
16160;DHT22;8185;57.818;15.224;2023-08-01T02:08:25;12.80;99.90
16160;DHT22;8185;57.818;15.224;2023-08-01T02:10:52;12.80;99.90
16160;DHT22;8185;57.818;15.224;2023-08-01T02:13:22;12.80;99.90
16160;DHT22;8185;57.818;15.224;2023-08-01T02:15:49;12.80;99.90
16160;DHT22;8185;57.818;15.224;2023-08-01T02:18:17;12.80;99.90
16160;DHT22;8185;57.818;15.224;2023-08-01T02:20:44;12.80;99.90
16160;DHT22;8185;57.818;15.224;2023-08-01T02:23:11;12.80;99.90
16160;DHT22;8185;57.818;15.224;2023-08-01T02:25:38;12.80;99.90
16160;DHT22;8185;57.818;15.224;2023-08-01T02:28:06;12.80;99.90
16160;DHT22;8185;57.818;15.224;2023-08-01T02:30:35;12.90;99.90
16160;DHT22;8185;57.818;15.224;2023-08-01T02:33:03;12.90;99.90
16160;DHT22;8185;57.818;15.224;2023-08-01T02:35:30;12.90;99.90
16160;DHT22;8185;57.818;15.224;2023-08-01T02:37:57;13.00;99.90
16160;DHT22;8185;57.818;15.224;2023-08-01T02:40:24;13.00;99.90
16160;DHT22;8185;57.818;15.224;2023-08-01T02:42:52;13.00;99.90
16160;DHT22;8185;57.818;15.224;2023-08-01T02:45:19;13.00;99.90
16160;DHT22;8185;57.818;15.224;2023-08-01T02:47:48;13.00;99.90
16160;DHT22;8185;57.818;15.224;2023-08-01T02:50:15;13.00;99.90
16160;DHT22;8185;57.818;15.224;2023-08-01T02:52:42;13.00;99.90
16160;DHT22;8185;57.818;15.224;2023-08-01T02:55:10;12.90;99.90
16160;DHT22;8185;57.818;15.224;2023-08-01T02:57:37;12.90;99.90
16160;DHT22;8185;57.818;15.224;2023-08-01T03:00:05;12.90;99.90
16160;DHT22;8185;57.818;15.224;2023-08-01T03:02:37;12.80;99.90
16160;DHT22;8185;57.818;15.224;2023-08-01T03:05:08;12.80;99.90
16160;DHT22;8185;57.818;15.224;2023-08-01T03:07:35;12.80;99.90
16160;DHT22;8185;57.818;15.224;2023-08-01T03:10:03;12.80;99.90
16160;DHT22;8185;57.818;15.224;2023-08-01T03:12:32;12.80;99.90
16160;DHT22;8185;57.818;15.224;2023-08-01T03:14:59;12.80;99.90
16160;DHT22;8185;57.818;15.224;2023-08-01T03:17:26;12.80;99.90
16160;DHT22;8185;57.818;15.224;2023-08-01T03:19:53;12.70;99.90
16160;DHT22;8185;57.818;15.224;2023-08-01T03:22:22;12.70;99.90
16160;DHT22;8185;57.818;15.224;2023-08-01T03:24:49;12.80;99.90
16160;DHT22;8185;57.818;15.224;2023-08-01T03:27:16;12.80;99.90
16160;DHT22;8185;57.818;15.224;2023-08-01T03:29:44;12.80;99.90
16160;DHT22;8185;57.818;15.224;2023-08-01T03:32:11;12.80;99.90
16160;DHT22;8185;57.818;15.224;2023-08-01T03:34:38;12.80;99.90
16160;DHT22;8185;57.818;15.224;2023-08-01T03:37:07;12.80;99.90
16160;DHT22;8185;57.818;15.224;2023-08-01T03:39:35;12.80;99.90
16160;DHT22;8185;57.818;15.224;2023-08-01T03:42:03;12.80;99.90
16160;DHT22;8185;57.818;15.224;2023-08-01T03:44:30;12.90;99.90
16160;DHT22;8185;57.818;15.224;2023-08-01T03:46:58;12.90;99.90
16160;DHT22;8185;57.818;15.224;2023-08-01T03:49:25;12.90;99.90
16160;DHT22;8185;57.818;15.224;2023-08-01T03:51:52;12.90;99.90
16160;DHT22;8185;57.818;15.224;2023-08-01T03:54:19;13.00;99.90
16160;DHT22;8185;57.818;15.224;2023-08-01T03:56:48;13.00;99.90
16160;DHT22;8185;57.818;15.224;2023-08-01T03:59:15;13.00;99.90
16160;DHT22;8185;57.818;15.224;2023-08-01T04:01:42;13.00;99.90
16160;DHT22;8185;57.818;15.224;2023-08-01T04:04:10;13.00;99.90
16160;DHT22;8185;57.818;15.224;2023-08-01T04:06:37;13.00;99.90
16160;DHT22;8185;57.818;15.224;2023-08-01T04:09:04;13.10;99.90
16160;DHT22;8185;57.818;15.224;2023-08-01T04:11:32;13.10;99.90
16160;DHT22;8185;57.818;15.224;2023-08-01T04:14:00;13.20;99.90
16160;DHT22;8185;57.818;15.224;2023-08-01T04:16:27;13.20;99.90
16160;DHT22;8185;57.818;15.224;2023-08-01T04:18:55;13.30;99.90
16160;DHT22;8185;57.818;15.224;2023-08-01T04:21:22;13.30;99.90
16160;DHT22;8185;57.818;15.224;2023-08-01T04:23:49;13.40;99.90
16160;DHT22;8185;57.818;15.224;2023-08-01T04:26:16;13.40;99.90
16160;DHT22;8185;57.818;15.224;2023-08-01T04:28:45;13.40;99.90
16160;DHT22;8185;57.818;15.224;2023-08-01T04:31:14;13.50;99.90
16160;DHT22;8185;57.818;15.224;2023-08-01T04:33:41;13.50;99.90
16160;DHT22;8185;57.818;15.224;2023-08-01T04:36:08;13.50;99.90
16160;DHT22;8185;57.818;15.224;2023-08-01T04:38:35;13.60;99.90
16160;DHT22;8185;57.818;15.224;2023-08-01T04:41:02;13.60;99.90
16160;DHT22;8185;57.818;15.224;2023-08-01T04:43:30;13.70;99.90
16160;DHT22;8185;57.818;15.224;2023-08-01T04:45:57;13.70;99.90
16160;DHT22;8185;57.818;15.224;2023-08-01T04:48:25;13.70;99.90
16160;DHT22;8185;57.818;15.224;2023-08-01T04:50:53;13.80;99.90
16160;DHT22;8185;57.818;15.224;2023-08-01T04:53:20;13.80;99.90
16160;DHT22;8185;57.818;15.224;2023-08-01T04:55:47;13.80;99.90
16160;DHT22;8185;57.818;15.224;2023-08-01T04:58:14;13.80;99.90
16160;DHT22;8185;57.818;15.224;2023-08-01T05:00:42;13.90;99.90
16160;DHT22;8185;57.818;15.224;2023-08-01T05:03:09;13.90;99.90
16160;DHT22;8185;57.818;15.224;2023-08-01T05:05:37;13.90;99.90
16160;DHT22;8185;57.818;15.224;2023-08-01T05:08:04;13.90;99.90
16160;DHT22;8185;57.818;15.224;2023-08-01T05:10:32;13.90;99.90
16160;DHT22;8185;57.818;15.224;2023-08-01T05:12:59;13.90;99.90
16160;DHT22;8185;57.818;15.224;2023-08-01T05:15:26;13.90;99.90
16160;DHT22;8185;57.818;15.224;2023-08-01T05:17:53;13.90;99.90
16160;DHT22;8185;57.818;15.224;2023-08-01T05:20:21;13.90;99.90
16160;DHT22;8185;57.818;15.224;2023-08-01T05:22:50;13.90;99.90
16160;DHT22;8185;57.818;15.224;2023-08-01T05:25:17;14.00;99.90
16160;DHT22;8185;57.818;15.224;2023-08-01T05:27:44;14.00;99.90
16160;DHT22;8185;57.818;15.224;2023-08-01T05:30:11;14.00;99.90
16160;DHT22;8185;57.818;15.224;2023-08-01T05:32:38;14.00;99.90
16160;DHT22;8185;57.818;15.224;2023-08-01T05:35:07;14.00;99.90
16160;DHT22;8185;57.818;15.224;2023-08-01T05:37:34;14.10;99.90
16160;DHT22;8185;57.818;15.224;2023-08-01T05:40:05;14.20;99.90
16160;DHT22;8185;57.818;15.224;2023-08-01T05:42:32;14.20;99.90
16160;DHT22;8185;57.818;15.224;2023-08-01T05:44:59;14.20;99.90
16160;DHT22;8185;57.818;15.224;2023-08-01T05:47:26;14.20;99.90
16160;DHT22;8185;57.818;15.224;2023-08-01T05:49:54;14.40;99.90
16160;DHT22;8185;57.818;15.224;2023-08-01T05:52:21;14.40;99.90
16160;DHT22;8185;57.818;15.224;2023-08-01T05:54:49;14.60;99.90
16160;DHT22;8185;57.818;15.224;2023-08-01T05:57:18;14.60;99.90
16160;DHT22;8185;57.818;15.224;2023-08-01T05:59:46;14.80;99.90
16160;DHT22;8185;57.818;15.224;2023-08-01T06:02:13;14.90;99.90
16160;DHT22;8185;57.818;15.224;2023-08-01T06:04:40;15.00;99.90
16160;DHT22;8185;57.818;15.224;2023-08-01T06:07:07;15.10;99.90
16160;DHT22;8185;57.818;15.224;2023-08-01T06:09:34;15.20;99.90
16160;DHT22;8185;57.818;15.224;2023-08-01T06:12:01;15.20;99.90
16160;DHT22;8185;57.818;15.224;2023-08-01T06:14:30;15.40;99.90
16160;DHT22;8185;57.818;15.224;2023-08-01T06:16:57;15.50;99.90
16160;DHT22;8185;57.818;15.224;2023-08-01T06:19:24;15.70;99.90
16160;DHT22;8185;57.818;15.224;2023-08-01T06:21:52;15.80;99.90
16160;DHT22;8185;57.818;15.224;2023-08-01T06:24:19;16.20;99.90
16160;DHT22;8185;57.818;15.224;2023-08-01T06:26:46;16.60;99.90
16160;DHT22;8185;57.818;15.224;2023-08-01T06:29:13;16.80;99.90
16160;DHT22;8185;57.818;15.224;2023-08-01T06:31:42;16.80;99.90
16160;DHT22;8185;57.818;15.224;2023-08-01T06:34:09;17.00;99.90
16160;DHT22;8185;57.818;15.224;2023-08-01T06:36:36;17.10;99.90
16160;DHT22;8185;57.818;15.224;2023-08-01T06:39:03;17.20;99.90
16160;DHT22;8185;57.818;15.224;2023-08-01T06:41:31;17.30;99.90
16160;DHT22;8185;57.818;15.224;2023-08-01T06:43:59;17.20;99.90
16160;DHT22;8185;57.818;15.224;2023-08-01T06:46:26;17.40;99.90
16160;DHT22;8185;57.818;15.224;2023-08-01T06:48:54;17.40;99.90
16160;DHT22;8185;57.818;15.224;2023-08-01T06:51:21;17.50;99.90
16160;DHT22;8185;57.818;15.224;2023-08-01T06:53:49;17.40;99.90
16160;DHT22;8185;57.818;15.224;2023-08-01T06:56:16;17.10;99.90
16160;DHT22;8185;57.818;15.224;2023-08-01T06:58:43;16.80;99.90
16160;DHT22;8185;57.818;15.224;2023-08-01T07:01:10;16.90;99.90
16160;DHT22;8185;57.818;15.224;2023-08-01T07:03:38;17.10;99.90
16160;DHT22;8185;57.818;15.224;2023-08-01T07:06:06;17.10;99.90
16160;DHT22;8185;57.818;15.224;2023-08-01T07:08:33;16.90;99.90
16160;DHT22;8185;57.818;15.224;2023-08-01T07:11:00;16.70;99.90
16160;DHT22;8185;57.818;15.224;2023-08-01T07:13:28;16.40;99.90
16160;DHT22;8185;57.818;15.224;2023-08-01T07:15:55;16.40;99.90
16160;DHT22;8185;57.818;15.224;2023-08-01T07:18:22;16.50;99.90
16160;DHT22;8185;57.818;15.224;2023-08-01T07:20:59;16.60;99.90
16160;DHT22;8185;57.818;15.224;2023-08-01T07:23:28;16.60;99.90
16160;DHT22;8185;57.818;15.224;2023-08-01T07:25:55;16.50;99.90
16160;DHT22;8185;57.818;15.224;2023-08-01T07:28:23;16.50;99.90
16160;DHT22;8185;57.818;15.224;2023-08-01T07:30:58;16.60;99.90
16160;DHT22;8185;57.818;15.224;2023-08-01T07:33:25;16.70;99.90
16160;DHT22;8185;57.818;15.224;2023-08-01T07:35:53;16.90;99.90
16160;DHT22;8185;57.818;15.224;2023-08-01T07:38:20;17.00;99.90
16160;DHT22;8185;57.818;15.224;2023-08-01T07:40:49;16.90;99.90
16160;DHT22;8185;57.818;15.224;2023-08-01T07:43:16;16.60;99.90
16160;DHT22;8185;57.818;15.224;2023-08-01T07:45:44;16.70;99.90
16160;DHT22;8185;57.818;15.224;2023-08-01T07:48:11;16.70;99.90
16160;DHT22;8185;57.818;15.224;2023-08-01T07:50:39;16.90;99.90
16160;DHT22;8185;57.818;15.224;2023-08-01T07:53:07;17.00;99.90
16160;DHT22;8185;57.818;15.224;2023-08-01T07:55:34;17.00;99.90
16160;DHT22;8185;57.818;15.224;2023-08-01T07:58:03;16.90;99.90
16160;DHT22;8185;57.818;15.224;2023-08-01T08:00:30;16.70;99.90
16160;DHT22;8185;57.818;15.224;2023-08-01T08:02:58;16.80;99.90
16160;DHT22;8185;57.818;15.224;2023-08-01T08:05:25;16.80;99.90
16160;DHT22;8185;57.818;15.224;2023-08-01T08:07:52;16.60;99.90
16160;DHT22;8185;57.818;15.224;2023-08-01T08:10:19;16.60;99.90
16160;DHT22;8185;57.818;15.224;2023-08-01T08:12:46;16.70;99.90
16160;DHT22;8185;57.818;15.224;2023-08-01T08:15:16;16.90;99.90
16160;DHT22;8185;57.818;15.224;2023-08-01T08:17:45;17.20;99.90
16160;DHT22;8185;57.818;15.224;2023-08-01T08:20:12;17.30;99.90
16160;DHT22;8185;57.818;15.224;2023-08-01T08:22:39;17.50;99.90
16160;DHT22;8185;57.818;15.224;2023-08-01T08:25:07;17.40;99.90
16160;DHT22;8185;57.818;15.224;2023-08-01T08:27:34;17.30;99.90
16160;DHT22;8185;57.818;15.224;2023-08-01T08:30:01;17.40;99.90
16160;DHT22;8185;57.818;15.224;2023-08-01T08:32:30;17.40;99.90
16160;DHT22;8185;57.818;15.224;2023-08-01T08:34:57;17.60;99.90
16160;DHT22;8185;57.818;15.224;2023-08-01T08:37:24;17.50;99.90
16160;DHT22;8185;57.818;15.224;2023-08-01T08:39:51;17.80;99.90
16160;DHT22;8185;57.818;15.224;2023-08-01T08:42:19;17.70;99.90
16160;DHT22;8185;57.818;15.224;2023-08-01T08:44:49;17.90;99.90
16160;DHT22;8185;57.818;15.224;2023-08-01T08:47:17;17.90;99.90
16160;DHT22;8185;57.818;15.224;2023-08-01T08:49:48;18.00;99.90
16160;DHT22;8185;57.818;15.224;2023-08-01T08:52:15;18.10;99.90
16160;DHT22;8185;57.818;15.224;2023-08-01T08:54:43;17.80;99.90
16160;DHT22;8185;57.818;15.224;2023-08-01T08:57:10;17.80;99.90
16160;DHT22;8185;57.818;15.224;2023-08-01T08:59:38;17.80;99.90
16160;DHT22;8185;57.818;15.224;2023-08-01T09:02:06;17.70;99.90
16160;DHT22;8185;57.818;15.224;2023-08-01T09:04:33;17.60;99.90
16160;DHT22;8185;57.818;15.224;2023-08-01T09:07:06;17.60;99.90
16160;DHT22;8185;57.818;15.224;2023-08-01T09:09:34;17.70;99.90
16160;DHT22;8185;57.818;15.224;2023-08-01T09:12:03;17.80;99.90
16160;DHT22;8185;57.818;15.224;2023-08-01T09:14:30;18.00;99.90
16160;DHT22;8185;57.818;15.224;2023-08-01T09:17:06;17.80;99.90
16160;DHT22;8185;57.818;15.224;2023-08-01T09:19:33;17.70;99.90
16160;DHT22;8185;57.818;15.224;2023-08-01T09:22:10;17.90;99.90
16160;DHT22;8185;57.818;15.224;2023-08-01T09:24:37;18.00;99.90
16160;DHT22;8185;57.818;15.224;2023-08-01T09:27:06;18.20;99.90
16160;DHT22;8185;57.818;15.224;2023-08-01T09:29:34;18.20;99.90
16160;DHT22;8185;57.818;15.224;2023-08-01T09:32:11;18.30;99.90
16160;DHT22;8185;57.818;15.224;2023-08-01T09:34:40;18.20;99.90
16160;DHT22;8185;57.818;15.224;2023-08-01T09:37:09;18.10;99.90
16160;DHT22;8185;57.818;15.224;2023-08-01T09:39:36;18.40;99.90
16160;DHT22;8185;57.818;15.224;2023-08-01T09:42:04;18.80;99.90
16160;DHT22;8185;57.818;15.224;2023-08-01T09:44:31;18.80;99.90
16160;DHT22;8185;57.818;15.224;2023-08-01T09:47:00;18.60;99.90
16160;DHT22;8185;57.818;15.224;2023-08-01T09:49:28;18.50;99.90
16160;DHT22;8185;57.818;15.224;2023-08-01T09:51:55;18.40;99.90
16160;DHT22;8185;57.818;15.224;2023-08-01T09:54:24;18.30;99.90
16160;DHT22;8185;57.818;15.224;2023-08-01T09:56:53;18.30;99.90
16160;DHT22;8185;57.818;15.224;2023-08-01T09:59:23;18.50;99.90
16160;DHT22;8185;57.818;15.224;2023-08-01T10:01:52;18.80;99.90
16160;DHT22;8185;57.818;15.224;2023-08-01T10:04:25;18.80;99.90
16160;DHT22;8185;57.818;15.224;2023-08-01T10:06:58;18.80;99.90
16160;DHT22;8185;57.818;15.224;2023-08-01T10:09:27;19.00;99.90
16160;DHT22;8185;57.818;15.224;2023-08-01T10:11:57;19.10;99.90
16160;DHT22;8185;57.818;15.224;2023-08-01T10:14:25;19.30;99.90
16160;DHT22;8185;57.818;15.224;2023-08-01T10:16:54;19.10;99.90
16160;DHT22;8185;57.818;15.224;2023-08-01T10:19:21;18.80;99.90
16160;DHT22;8185;57.818;15.224;2023-08-01T10:21:49;18.40;99.90
16160;DHT22;8185;57.818;15.224;2023-08-01T10:24:17;18.10;99.90
16160;DHT22;8185;57.818;15.224;2023-08-01T10:26:46;17.70;99.90
16160;DHT22;8185;57.818;15.224;2023-08-01T10:29:13;17.70;99.90
16160;DHT22;8185;57.818;15.224;2023-08-01T10:31:51;17.40;99.90
16160;DHT22;8185;57.818;15.224;2023-08-01T10:34:19;17.40;99.90
16160;DHT22;8185;57.818;15.224;2023-08-01T10:36:54;17.40;99.90
16160;DHT22;8185;57.818;15.224;2023-08-01T10:39:22;17.50;99.90
16160;DHT22;8185;57.818;15.224;2023-08-01T10:41:58;17.60;99.90
16160;DHT22;8185;57.818;15.224;2023-08-01T10:44:26;17.90;99.90
16160;DHT22;8185;57.818;15.224;2023-08-01T10:46:55;18.10;99.90
16160;DHT22;8185;57.818;15.224;2023-08-01T10:49:34;18.30;99.90
16160;DHT22;8185;57.818;15.224;2023-08-01T10:52:03;18.40;99.90
16160;DHT22;8185;57.818;15.224;2023-08-01T10:54:32;18.70;99.90
16160;DHT22;8185;57.818;15.224;2023-08-01T10:57:06;19.30;99.90
16160;DHT22;8185;57.818;15.224;2023-08-01T10:59:34;19.50;99.90
16160;DHT22;8185;57.818;15.224;2023-08-01T11:02:01;19.50;99.90
16160;DHT22;8185;57.818;15.224;2023-08-01T11:04:29;19.70;99.90
16160;DHT22;8185;57.818;15.224;2023-08-01T11:06:56;19.60;99.90
16160;DHT22;8185;57.818;15.224;2023-08-01T11:09:24;19.30;99.90
16160;DHT22;8185;57.818;15.224;2023-08-01T11:11:53;19.30;99.90
16160;DHT22;8185;57.818;15.224;2023-08-01T11:14:26;19.20;99.90
16160;DHT22;8185;57.818;15.224;2023-08-01T11:16:54;18.80;99.90
16160;DHT22;8185;57.818;15.224;2023-08-01T11:19:24;18.40;99.90
16160;DHT22;8185;57.818;15.224;2023-08-01T11:21:52;18.40;99.90
16160;DHT22;8185;57.818;15.224;2023-08-01T11:24:20;18.60;99.90
16160;DHT22;8185;57.818;15.224;2023-08-01T11:26:49;18.70;99.90
16160;DHT22;8185;57.818;15.224;2023-08-01T11:29:17;19.10;99.90
16160;DHT22;8185;57.818;15.224;2023-08-01T11:31:54;19.60;99.90
16160;DHT22;8185;57.818;15.224;2023-08-01T11:34:22;19.40;99.90
16160;DHT22;8185;57.818;15.224;2023-08-01T11:36:49;19.20;99.90
16160;DHT22;8185;57.818;15.224;2023-08-01T11:39:17;18.90;99.90
16160;DHT22;8185;57.818;15.224;2023-08-01T11:41:44;18.90;99.90
16160;DHT22;8185;57.818;15.224;2023-08-01T11:44:12;18.40;99.90
16160;DHT22;8185;57.818;15.224;2023-08-01T11:46:39;18.20;99.90
16160;DHT22;8185;57.818;15.224;2023-08-01T11:49:08;17.70;99.90
16160;DHT22;8185;57.818;15.224;2023-08-01T11:51:39;17.40;99.90
16160;DHT22;8185;57.818;15.224;2023-08-01T11:54:08;17.00;99.90
16160;DHT22;8185;57.818;15.224;2023-08-01T11:56:37;16.80;99.90
16160;DHT22;8185;57.818;15.224;2023-08-01T11:59:08;16.80;99.90
16160;DHT22;8185;57.818;15.224;2023-08-01T12:01:39;16.70;99.90
16160;DHT22;8185;57.818;15.224;2023-08-01T12:04:08;16.80;99.90
16160;DHT22;8185;57.818;15.224;2023-08-01T12:06:35;17.00;99.90
16160;DHT22;8185;57.818;15.224;2023-08-01T12:09:09;17.30;99.90
16160;DHT22;8185;57.818;15.224;2023-08-01T12:11:38;17.40;99.90
16160;DHT22;8185;57.818;15.224;2023-08-01T12:14:07;17.50;99.90
16160;DHT22;8185;57.818;15.224;2023-08-01T12:16:35;17.80;99.90
16160;DHT22;8185;57.818;15.224;2023-08-01T12:19:03;18.30;99.90
16160;DHT22;8185;57.818;15.224;2023-08-01T12:21:32;18.20;99.90
16160;DHT22;8185;57.818;15.224;2023-08-01T12:24:01;18.00;99.90
16160;DHT22;8185;57.818;15.224;2023-08-01T12:26:29;17.90;99.90
16160;DHT22;8185;57.818;15.224;2023-08-01T12:28:56;18.00;99.90
16160;DHT22;8185;57.818;15.224;2023-08-01T12:31:23;18.30;99.90
16160;DHT22;8185;57.818;15.224;2023-08-01T12:33:51;18.30;99.90
16160;DHT22;8185;57.818;15.224;2023-08-01T12:36:19;18.30;99.90
16160;DHT22;8185;57.818;15.224;2023-08-01T12:38:48;18.30;99.90
16160;DHT22;8185;57.818;15.224;2023-08-01T12:41:16;18.10;99.90
16160;DHT22;8185;57.818;15.224;2023-08-01T12:43:46;18.00;99.90
16160;DHT22;8185;57.818;15.224;2023-08-01T12:46:13;18.00;99.90
16160;DHT22;8185;57.818;15.224;2023-08-01T12:48:40;18.00;99.90
16160;DHT22;8185;57.818;15.224;2023-08-01T12:51:08;18.00;99.90
16160;DHT22;8185;57.818;15.224;2023-08-01T12:53:35;18.10;99.90
16160;DHT22;8185;57.818;15.224;2023-08-01T12:56:04;18.10;99.90
16160;DHT22;8185;57.818;15.224;2023-08-01T12:58:31;18.20;99.90
16160;DHT22;8185;57.818;15.224;2023-08-01T13:00:58;18.10;99.90
16160;DHT22;8185;57.818;15.224;2023-08-01T13:03:26;18.20;99.90
16160;DHT22;8185;57.818;15.224;2023-08-01T13:05:53;18.30;99.90
16160;DHT22;8185;57.818;15.224;2023-08-01T13:08:22;18.50;99.90
16160;DHT22;8185;57.818;15.224;2023-08-01T13:10:49;18.50;99.90
16160;DHT22;8185;57.818;15.224;2023-08-01T13:13:19;18.60;99.90
16160;DHT22;8185;57.818;15.224;2023-08-01T13:15:46;18.60;99.90
16160;DHT22;8185;57.818;15.224;2023-08-01T13:18:13;18.50;99.90
16160;DHT22;8185;57.818;15.224;2023-08-01T13:20:40;18.40;99.90
16160;DHT22;8185;57.818;15.224;2023-08-01T13:23:08;18.30;99.90
16160;DHT22;8185;57.818;15.224;2023-08-01T13:25:35;18.10;99.90
16160;DHT22;8185;57.818;15.224;2023-08-01T13:28:02;18.00;99.90
16160;DHT22;8185;57.818;15.224;2023-08-01T13:30:31;17.90;99.90
16160;DHT22;8185;57.818;15.224;2023-08-01T13:32:58;17.80;99.90
16160;DHT22;8185;57.818;15.224;2023-08-01T13:35:25;17.80;99.90
16160;DHT22;8185;57.818;15.224;2023-08-01T13:37:52;17.80;99.90
16160;DHT22;8185;57.818;15.224;2023-08-01T13:40:20;18.00;99.90
16160;DHT22;8185;57.818;15.224;2023-08-01T13:42:47;18.00;99.90
16160;DHT22;8185;57.818;15.224;2023-08-01T13:45:14;18.00;99.90
16160;DHT22;8185;57.818;15.224;2023-08-01T13:47:42;18.20;99.90
16160;DHT22;8185;57.818;15.224;2023-08-01T13:50:10;18.40;99.90
16160;DHT22;8185;57.818;15.224;2023-08-01T13:52:37;18.80;99.90
16160;DHT22;8185;57.818;15.224;2023-08-01T13:55:05;19.10;99.90
16160;DHT22;8185;57.818;15.224;2023-08-01T13:57:33;19.30;99.90
16160;DHT22;8185;57.818;15.224;2023-08-01T14:00:00;19.50;99.90
16160;DHT22;8185;57.818;15.224;2023-08-01T14:02:27;19.60;99.90
16160;DHT22;8185;57.818;15.224;2023-08-01T14:04:57;20.20;99.90
16160;DHT22;8185;57.818;15.224;2023-08-01T14:07:24;20.20;99.90
16160;DHT22;8185;57.818;15.224;2023-08-01T14:09:51;20.40;99.90
16160;DHT22;8185;57.818;15.224;2023-08-01T14:12:19;20.80;99.90
16160;DHT22;8185;57.818;15.224;2023-08-01T14:14:47;20.60;99.90
16160;DHT22;8185;57.818;15.224;2023-08-01T14:17:16;20.20;99.90
16160;DHT22;8185;57.818;15.224;2023-08-01T14:19:43;19.70;99.90
16160;DHT22;8185;57.818;15.224;2023-08-01T14:22:12;19.70;99.90
16160;DHT22;8185;57.818;15.224;2023-08-01T14:24:39;19.80;99.90
16160;DHT22;8185;57.818;15.224;2023-08-01T14:27:06;19.90;99.90
16160;DHT22;8185;57.818;15.224;2023-08-01T14:29:33;19.80;99.90
16160;DHT22;8185;57.818;15.224;2023-08-01T14:32:00;19.50;99.90
16160;DHT22;8185;57.818;15.224;2023-08-01T14:34:27;19.80;99.90
16160;DHT22;8185;57.818;15.224;2023-08-01T14:36:54;19.90;99.90
16160;DHT22;8185;57.818;15.224;2023-08-01T14:39:23;19.80;99.90
16160;DHT22;8185;57.818;15.224;2023-08-01T14:41:50;20.10;99.90
16160;DHT22;8185;57.818;15.224;2023-08-01T14:44:17;20.50;99.90
16160;DHT22;8185;57.818;15.224;2023-08-01T14:46:45;20.30;99.90
16160;DHT22;8185;57.818;15.224;2023-08-01T14:49:12;20.00;99.90
16160;DHT22;8185;57.818;15.224;2023-08-01T14:51:39;19.70;99.90
16160;DHT22;8185;57.818;15.224;2023-08-01T14:54:06;19.50;99.90
16160;DHT22;8185;57.818;15.224;2023-08-01T14:56:35;19.20;99.90
16160;DHT22;8185;57.818;15.224;2023-08-01T14:59:02;18.90;99.90
16160;DHT22;8185;57.818;15.224;2023-08-01T15:01:29;18.50;99.90
16160;DHT22;8185;57.818;15.224;2023-08-01T15:03:56;18.40;99.90
16160;DHT22;8185;57.818;15.224;2023-08-01T15:06:23;18.20;99.90
16160;DHT22;8185;57.818;15.224;2023-08-01T15:08:52;18.20;99.90
16160;DHT22;8185;57.818;15.224;2023-08-01T15:11:20;18.10;99.90
16160;DHT22;8185;57.818;15.224;2023-08-01T15:13:49;18.20;99.90
16160;DHT22;8185;57.818;15.224;2023-08-01T15:16:17;18.10;99.90
16160;DHT22;8185;57.818;15.224;2023-08-01T15:18:44;18.00;99.90
16160;DHT22;8185;57.818;15.224;2023-08-01T15:21:11;18.00;99.90
16160;DHT22;8185;57.818;15.224;2023-08-01T15:23:39;17.90;99.90
16160;DHT22;8185;57.818;15.224;2023-08-01T15:26:06;17.70;99.90
16160;DHT22;8185;57.818;15.224;2023-08-01T15:28:33;17.50;99.90
16160;DHT22;8185;57.818;15.224;2023-08-01T15:31:04;17.40;99.90
16160;DHT22;8185;57.818;15.224;2023-08-01T15:33:32;17.30;99.90